sensor_id;sensor_type;location;lat;lon;timestamp;pressure;altitude;pressure_sealevel;temperature;humidity
28448;BME280;15675;52.870;-1.416;2023-02-11T00:01:24;102794.00;;;9.79;100.00
28448;BME280;15675;52.870;-1.416;2023-02-11T00:03:51;102796.75;;;10.05;100.00
28448;BME280;15675;52.870;-1.416;2023-02-11T00:06:16;102786.13;;;9.98;100.00
28448;BME280;15675;52.870;-1.416;2023-02-11T00:08:42;102787.44;;;9.87;100.00
28448;BME280;15675;52.870;-1.416;2023-02-11T00:11:12;102784.25;;;10.17;100.00
28448;BME280;15675;52.870;-1.416;2023-02-11T00:13:38;102783.84;;;10.06;100.00
28448;BME280;15675;52.870;-1.416;2023-02-11T00:16:08;102782.63;;;10.19;100.00
28448;BME280;15675;52.870;-1.416;2023-02-11T00:18:34;102787.91;;;10.22;100.00
28448;BME280;15675;52.870;-1.416;2023-02-11T00:21:08;102793.16;;;10.24;100.00
28448;BME280;15675;52.870;-1.416;2023-02-11T00:23:34;102791.81;;;10.33;100.00
28448;BME280;15675;52.870;-1.416;2023-02-11T00:26:00;102803.00;;;10.32;100.00
28448;BME280;15675;52.870;-1.416;2023-02-11T00:28:25;102797.34;;;10.43;100.00
28448;BME280;15675;52.870;-1.416;2023-02-11T00:30:57;102800.06;;;10.46;100.00
28448;BME280;15675;52.870;-1.416;2023-02-11T00:33:23;102805.16;;;10.43;100.00
28448;BME280;15675;52.870;-1.416;2023-02-11T00:35:49;102795.69;;;10.22;100.00
28448;BME280;15675;52.870;-1.416;2023-02-11T00:38:14;102794.75;;;10.20;100.00
28448;BME280;15675;52.870;-1.416;2023-02-11T00:40:40;102781.13;;;10.26;100.00
28448;BME280;15675;52.870;-1.416;2023-02-11T00:43:05;102785.22;;;10.19;100.00
28448;BME280;15675;52.870;-1.416;2023-02-11T00:45:31;102784.47;;;10.23;100.00
28448;BME280;15675;52.870;-1.416;2023-02-11T00:47:57;102784.28;;;10.40;100.00
28448;BME280;15675;52.870;-1.416;2023-02-11T00:50:22;102793.34;;;10.75;100.00
28448;BME280;15675;52.870;-1.416;2023-02-11T00:52:48;102791.59;;;11.00;100.00
28448;BME280;15675;52.870;-1.416;2023-02-11T00:55:14;102793.34;;;11.25;100.00
28448;BME280;15675;52.870;-1.416;2023-02-11T00:57:40;102802.53;;;11.68;100.00
28448;BME280;15675;52.870;-1.416;2023-02-11T01:00:13;102809.50;;;11.69;100.00
28448;BME280;15675;52.870;-1.416;2023-02-11T01:02:40;102803.66;;;11.49;100.00
28448;BME280;15675;52.870;-1.416;2023-02-11T01:05:06;102799.13;;;10.92;100.00
28448;BME280;15675;52.870;-1.416;2023-02-11T01:07:31;102794.00;;;10.45;100.00
28448;BME280;15675;52.870;-1.416;2023-02-11T01:09:57;102789.91;;;10.29;100.00
28448;BME280;15675;52.870;-1.416;2023-02-11T01:12:23;102792.06;;;10.40;100.00
28448;BME280;15675;52.870;-1.416;2023-02-11T01:14:48;102787.72;;;10.17;100.00
28448;BME280;15675;52.870;-1.416;2023-02-11T01:17:14;102793.88;;;10.19;100.00
28448;BME280;15675;52.870;-1.416;2023-02-11T01:19:40;102798.06;;;10.39;100.00
28448;BME280;15675;52.870;-1.416;2023-02-11T01:22:05;102802.63;;;10.23;100.00
28448;BME280;15675;52.870;-1.416;2023-02-11T01:24:31;102806.53;;;10.57;100.00
28448;BME280;15675;52.870;-1.416;2023-02-11T01:26:57;102794.91;;;10.47;100.00
28448;BME280;15675;52.870;-1.416;2023-02-11T01:29:22;102790.28;;;10.39;100.00
28448;BME280;15675;52.870;-1.416;2023-02-11T01:31:48;102781.22;;;10.29;100.00
28448;BME280;15675;52.870;-1.416;2023-02-11T01:34:14;102782.47;;;10.16;100.00
28448;BME280;15675;52.870;-1.416;2023-02-11T01:36:40;102789.75;;;10.25;100.00
28448;BME280;15675;52.870;-1.416;2023-02-11T01:39:06;102795.16;;;10.31;100.00
28448;BME280;15675;52.870;-1.416;2023-02-11T01:41:33;102794.22;;;10.51;100.00
28448;BME280;15675;52.870;-1.416;2023-02-11T01:44:22;102796.38;;;10.39;100.00
28448;BME280;15675;52.870;-1.416;2023-02-11T01:46:49;102798.47;;;10.27;100.00
28448;BME280;15675;52.870;-1.416;2023-02-11T01:49:21;102796.53;;;10.21;100.00
28448;BME280;15675;52.870;-1.416;2023-02-11T01:54:26;102801.06;;;10.49;100.00
28448;BME280;15675;52.870;-1.416;2023-02-11T01:57:15;102794.41;;;10.33;100.00
28448;BME280;15675;52.870;-1.416;2023-02-11T01:59:55;102787.63;;;10.37;100.00
28448;BME280;15675;52.870;-1.416;2023-02-11T02:02:27;102789.09;;;10.30;100.00
28448;BME280;15675;52.870;-1.416;2023-02-11T02:05:13;102795.22;;;10.32;100.00
28448;BME280;15675;52.870;-1.416;2023-02-11T02:07:53;102798.25;;;10.43;100.00
28448;BME280;15675;52.870;-1.416;2023-02-11T02:10:23;102807.06;;;10.26;100.00
28448;BME280;15675;52.870;-1.416;2023-02-11T02:12:49;102807.09;;;10.48;100.00
28448;BME280;15675;52.870;-1.416;2023-02-11T02:15:22;102795.22;;;10.32;100.00
28448;BME280;15675;52.870;-1.416;2023-02-11T02:20:58;102810.34;;;10.43;100.00
28448;BME280;15675;52.870;-1.416;2023-02-11T02:37:50;102820.13;;;10.50;100.00
28448;BME280;15675;52.870;-1.416;2023-02-11T02:40:28;102816.38;;;10.66;100.00
28448;BME280;15675;52.870;-1.416;2023-02-11T02:42:56;102817.97;;;10.38;100.00
28448;BME280;15675;52.870;-1.416;2023-02-11T02:45:23;102817.53;;;10.50;100.00
28448;BME280;15675;52.870;-1.416;2023-02-11T02:47:48;102813.50;;;10.58;100.00
28448;BME280;15675;52.870;-1.416;2023-02-11T02:50:16;102810.81;;;10.55;100.00
28448;BME280;15675;52.870;-1.416;2023-02-11T03:01:02;102797.44;;;10.23;100.00
28448;BME280;15675;52.870;-1.416;2023-02-11T03:09:22;102799.94;;;10.43;100.00
28448;BME280;15675;52.870;-1.416;2023-02-11T03:11:50;102800.34;;;10.31;100.00
28448;BME280;15675;52.870;-1.416;2023-02-11T03:14:17;102804.31;;;10.44;100.00
28448;BME280;15675;52.870;-1.416;2023-02-11T03:16:44;102793.63;;;10.36;100.00
28448;BME280;15675;52.870;-1.416;2023-02-11T03:19:14;102795.72;;;10.45;100.00
28448;BME280;15675;52.870;-1.416;2023-02-11T03:21:43;102801.38;;;10.34;100.00
28448;BME280;15675;52.870;-1.416;2023-02-11T03:24:16;102806.88;;;10.42;100.00
28448;BME280;15675;52.870;-1.416;2023-02-11T03:26:53;102805.19;;;10.44;100.00
28448;BME280;15675;52.870;-1.416;2023-02-11T03:29:31;102800.00;;;10.44;100.00
28448;BME280;15675;52.870;-1.416;2023-02-11T03:37:20;102799.88;;;10.18;100.00
28448;BME280;15675;52.870;-1.416;2023-02-11T03:39:53;102811.25;;;10.43;100.00
28448;BME280;15675;52.870;-1.416;2023-02-11T03:42:22;102804.72;;;10.32;100.00
28448;BME280;15675;52.870;-1.416;2023-02-11T03:45:00;102806.19;;;10.25;100.00
28448;BME280;15675;52.870;-1.416;2023-02-11T03:47:30;102798.06;;;10.39;100.00
28448;BME280;15675;52.870;-1.416;2023-02-11T03:49:58;102785.06;;;10.16;100.00
28448;BME280;15675;52.870;-1.416;2023-02-11T03:52:26;102800.19;;;10.26;100.00
28448;BME280;15675;52.870;-1.416;2023-02-11T03:54:55;102792.03;;;10.17;100.00
28448;BME280;15675;52.870;-1.416;2023-02-11T03:57:22;102799.97;;;9.99;100.00
28448;BME280;15675;52.870;-1.416;2023-02-11T03:59:57;102804.03;;;9.70;100.00
28448;BME280;15675;52.870;-1.416;2023-02-11T04:02:30;102809.09;;;9.66;100.00
28448;BME280;15675;52.870;-1.416;2023-02-11T04:04:56;102805.88;;;9.72;100.00
28448;BME280;15675;52.870;-1.416;2023-02-11T04:07:22;102799.88;;;9.96;100.00
28448;BME280;15675;52.870;-1.416;2023-02-11T04:09:49;102800.22;;;9.82;100.00
28448;BME280;15675;52.870;-1.416;2023-02-11T04:12:14;102819.34;;;9.63;100.00
28448;BME280;15675;52.870;-1.416;2023-02-11T04:14:40;102819.59;;;9.70;100.00
28448;BME280;15675;52.870;-1.416;2023-02-11T04:17:05;102817.13;;;9.73;100.00
28448;BME280;15675;52.870;-1.416;2023-02-11T04:19:31;102827.16;;;9.86;100.00
28448;BME280;15675;52.870;-1.416;2023-02-11T04:21:57;102820.91;;;9.60;100.00
28448;BME280;15675;52.870;-1.416;2023-02-11T04:24:23;102818.31;;;9.81;100.00
28448;BME280;15675;52.870;-1.416;2023-02-11T04:26:49;102819.09;;;10.01;100.00
28448;BME280;15675;52.870;-1.416;2023-02-11T04:29:14;102820.97;;;9.82;100.00
28448;BME280;15675;52.870;-1.416;2023-02-11T04:31:40;102831.22;;;9.79;100.00
28448;BME280;15675;52.870;-1.416;2023-02-11T04:34:05;102822.69;;;10.05;100.00
28448;BME280;15675;52.870;-1.416;2023-02-11T04:36:31;102829.19;;;10.16;100.00
28448;BME280;15675;52.870;-1.416;2023-02-11T04:38:56;102824.91;;;10.16;100.00
28448;BME280;15675;52.870;-1.416;2023-02-11T04:41:22;102830.94;;;9.94;100.00
28448;BME280;15675;52.870;-1.416;2023-02-11T04:43:47;102829.09;;;9.92;100.00
28448;BME280;15675;52.870;-1.416;2023-02-11T04:46:13;102835.78;;;9.85;100.00
28448;BME280;15675;52.870;-1.416;2023-02-11T04:48:38;102834.50;;;9.54;100.00
28448;BME280;15675;52.870;-1.416;2023-02-11T04:51:04;102839.81;;;9.57;100.00
28448;BME280;15675;52.870;-1.416;2023-02-11T04:53:29;102831.34;;;9.40;100.00
28448;BME280;15675;52.870;-1.416;2023-02-11T04:55:55;102845.28;;;9.42;100.00
28448;BME280;15675;52.870;-1.416;2023-02-11T04:58:20;102843.03;;;9.52;100.00
28448;BME280;15675;52.870;-1.416;2023-02-11T05:00:46;102852.97;;;9.83;100.00
28448;BME280;15675;52.870;-1.416;2023-02-11T05:03:12;102846.50;;;9.94;100.00
28448;BME280;15675;52.870;-1.416;2023-02-11T05:05:38;102850.94;;;9.55;100.00
28448;BME280;15675;52.870;-1.416;2023-02-11T05:08:05;102857.69;;;9.71;100.00
28448;BME280;15675;52.870;-1.416;2023-02-11T05:10:31;102858.16;;;9.83;100.00
28448;BME280;15675;52.870;-1.416;2023-02-11T05:12:57;102854.00;;;9.87;100.00
28448;BME280;15675;52.870;-1.416;2023-02-11T05:15:22;102858.53;;;9.92;100.00
28448;BME280;15675;52.870;-1.416;2023-02-11T05:17:48;102872.25;;;10.11;100.00
28448;BME280;15675;52.870;-1.416;2023-02-11T05:20:13;102870.59;;;10.13;100.00
28448;BME280;15675;52.870;-1.416;2023-02-11T05:22:39;102874.84;;;10.11;100.00
28448;BME280;15675;52.870;-1.416;2023-02-11T05:25:05;102873.69;;;10.25;100.00
28448;BME280;15675;52.870;-1.416;2023-02-11T05:27:30;102873.59;;;10.01;100.00
28448;BME280;15675;52.870;-1.416;2023-02-11T05:29:56;102866.22;;;9.89;100.00
28448;BME280;15675;52.870;-1.416;2023-02-11T05:32:21;102868.28;;;9.77;100.00
28448;BME280;15675;52.870;-1.416;2023-02-11T05:34:47;102871.19;;;9.84;100.00
28448;BME280;15675;52.870;-1.416;2023-02-11T05:37:12;102864.09;;;9.80;100.00
28448;BME280;15675;52.870;-1.416;2023-02-11T05:39:38;102879.06;;;10.09;100.00
28448;BME280;15675;52.870;-1.416;2023-02-11T05:42:04;102880.59;;;10.25;100.00
28448;BME280;15675;52.870;-1.416;2023-02-11T05:44:29;102879.84;;;10.29;100.00
28448;BME280;15675;52.870;-1.416;2023-02-11T05:46:55;102871.28;;;10.09;100.00
28448;BME280;15675;52.870;-1.416;2023-02-11T05:49:20;102868.28;;;9.98;100.00
28448;BME280;15675;52.870;-1.416;2023-02-11T05:51:46;102867.59;;;10.02;100.00
28448;BME280;15675;52.870;-1.416;2023-02-11T05:54:11;102874.16;;;9.94;100.00
28448;BME280;15675;52.870;-1.416;2023-02-11T05:56:37;102877.34;;;9.87;100.00
28448;BME280;15675;52.870;-1.416;2023-02-11T05:59:03;102884.66;;;9.76;100.00
28448;BME280;15675;52.870;-1.416;2023-02-11T06:01:28;102890.88;;;10.00;100.00
28448;BME280;15675;52.870;-1.416;2023-02-11T06:03:54;102884.25;;;10.09;100.00
28448;BME280;15675;52.870;-1.416;2023-02-11T06:06:19;102882.59;;;9.67;100.00
28448;BME280;15675;52.870;-1.416;2023-02-11T06:08:45;102883.66;;;9.51;100.00
28448;BME280;15675;52.870;-1.416;2023-02-11T06:11:13;102878.28;;;9.46;100.00
28448;BME280;15675;52.870;-1.416;2023-02-11T06:13:39;102885.91;;;9.43;100.00
28448;BME280;15675;52.870;-1.416;2023-02-11T06:16:05;102881.19;;;9.54;100.00
28448;BME280;15675;52.870;-1.416;2023-02-11T06:18:30;102881.84;;;9.91;100.00
28448;BME280;15675;52.870;-1.416;2023-02-11T06:20:58;102892.97;;;9.67;100.00
28448;BME280;15675;52.870;-1.416;2023-02-11T06:23:24;102888.06;;;9.75;100.00
28448;BME280;15675;52.870;-1.416;2023-02-11T06:25:50;102888.97;;;9.54;100.00
28448;BME280;15675;52.870;-1.416;2023-02-11T06:28:16;102883.34;;;9.64;100.00
28448;BME280;15675;52.870;-1.416;2023-02-11T06:30:42;102885.31;;;9.29;100.00
28448;BME280;15675;52.870;-1.416;2023-02-11T06:33:07;102883.94;;;9.38;100.00
28448;BME280;15675;52.870;-1.416;2023-02-11T06:35:33;102892.41;;;9.33;100.00
28448;BME280;15675;52.870;-1.416;2023-02-11T06:38:00;102882.66;;;9.68;100.00
28448;BME280;15675;52.870;-1.416;2023-02-11T06:40:26;102893.72;;;9.64;100.00
28448;BME280;15675;52.870;-1.416;2023-02-11T06:42:51;102891.88;;;9.83;100.00
28448;BME280;15675;52.870;-1.416;2023-02-11T06:45:17;102899.22;;;9.51;100.00
28448;BME280;15675;52.870;-1.416;2023-02-11T06:47:43;102901.50;;;9.24;100.00
28448;BME280;15675;52.870;-1.416;2023-02-11T06:50:11;102904.22;;;9.07;100.00
28448;BME280;15675;52.870;-1.416;2023-02-11T06:52:37;102904.44;;;8.92;100.00
28448;BME280;15675;52.870;-1.416;2023-02-11T06:55:02;102903.34;;;9.07;100.00
28448;BME280;15675;52.870;-1.416;2023-02-11T06:57:29;102909.47;;;9.09;100.00
28448;BME280;15675;52.870;-1.416;2023-02-11T06:59:55;102910.50;;;9.32;100.00
28448;BME280;15675;52.870;-1.416;2023-02-11T07:02:21;102912.59;;;9.41;100.00
28448;BME280;15675;52.870;-1.416;2023-02-11T07:04:47;102912.25;;;9.33;100.00
28448;BME280;15675;52.870;-1.416;2023-02-11T07:07:12;102907.09;;;9.54;100.00
28448;BME280;15675;52.870;-1.416;2023-02-11T07:09:38;102915.00;;;9.57;100.00
28448;BME280;15675;52.870;-1.416;2023-02-11T07:12:03;102919.06;;;9.50;100.00
28448;BME280;15675;52.870;-1.416;2023-02-11T07:14:29;102918.47;;;9.37;100.00
28448;BME280;15675;52.870;-1.416;2023-02-11T07:16:54;102919.41;;;9.19;100.00
28448;BME280;15675;52.870;-1.416;2023-02-11T07:19:20;102913.41;;;9.20;100.00
28448;BME280;15675;52.870;-1.416;2023-02-11T07:21:45;102917.31;;;9.30;100.00
28448;BME280;15675;52.870;-1.416;2023-02-11T07:24:12;102926.50;;;9.43;100.00
28448;BME280;15675;52.870;-1.416;2023-02-11T07:26:38;102924.56;;;9.58;100.00
28448;BME280;15675;52.870;-1.416;2023-02-11T07:29:03;102936.09;;;9.65;100.00
28448;BME280;15675;52.870;-1.416;2023-02-11T07:31:29;102928.38;;;9.66;100.00
28448;BME280;15675;52.870;-1.416;2023-02-11T07:33:57;102930.63;;;9.59;100.00
28448;BME280;15675;52.870;-1.416;2023-02-11T07:36:25;102942.91;;;9.63;100.00
28448;BME280;15675;52.870;-1.416;2023-02-11T07:38:50;102942.03;;;9.62;100.00
28448;BME280;15675;52.870;-1.416;2023-02-11T07:41:19;102932.06;;;9.93;100.00
28448;BME280;15675;52.870;-1.416;2023-02-11T07:43:46;102943.69;;;10.02;100.00
28448;BME280;15675;52.870;-1.416;2023-02-11T07:46:14;102943.41;;;9.54;100.00
28448;BME280;15675;52.870;-1.416;2023-02-11T07:48:40;102940.44;;;9.66;100.00
28448;BME280;15675;52.870;-1.416;2023-02-11T07:51:15;102939.69;;;9.68;100.00
28448;BME280;15675;52.870;-1.416;2023-02-11T07:53:41;102944.22;;;9.53;100.00
28448;BME280;15675;52.870;-1.416;2023-02-11T07:56:08;102940.59;;;9.69;100.00
28448;BME280;15675;52.870;-1.416;2023-02-11T07:58:34;102945.19;;;9.36;100.00
28448;BME280;15675;52.870;-1.416;2023-02-11T08:01:06;102958.75;;;9.69;100.00
28448;BME280;15675;52.870;-1.416;2023-02-11T08:03:33;102957.25;;;9.95;100.00
28448;BME280;15675;52.870;-1.416;2023-02-11T08:06:07;102967.13;;;10.04;100.00
28448;BME280;15675;52.870;-1.416;2023-02-11T08:08:33;102962.25;;;10.12;100.00
28448;BME280;15675;52.870;-1.416;2023-02-11T08:11:07;102960.72;;;10.17;100.00
28448;BME280;15675;52.870;-1.416;2023-02-11T08:13:33;102957.81;;;9.88;100.00
28448;BME280;15675;52.870;-1.416;2023-02-11T08:15:59;102959.22;;;9.60;100.00
28448;BME280;15675;52.870;-1.416;2023-02-11T08:18:24;102959.81;;;9.74;100.00
28448;BME280;15675;52.870;-1.416;2023-02-11T08:20:50;102951.75;;;9.47;100.00
28448;BME280;15675;52.870;-1.416;2023-02-11T08:23:15;102954.88;;;9.59;100.00
28448;BME280;15675;52.870;-1.416;2023-02-11T08:25:41;102956.28;;;9.72;100.00
28448;BME280;15675;52.870;-1.416;2023-02-11T08:28:06;102960.38;;;9.67;100.00
28448;BME280;15675;52.870;-1.416;2023-02-11T08:30:33;102958.94;;;9.74;100.00
28448;BME280;15675;52.870;-1.416;2023-02-11T08:32:59;102959.63;;;9.70;100.00
28448;BME280;15675;52.870;-1.416;2023-02-11T08:35:24;102958.59;;;9.66;100.00
28448;BME280;15675;52.870;-1.416;2023-02-11T08:37:51;102960.56;;;9.50;100.00
28448;BME280;15675;52.870;-1.416;2023-02-11T08:40:17;102960.63;;;9.52;100.00
28448;BME280;15675;52.870;-1.416;2023-02-11T08:42:43;102958.34;;;9.40;100.00
28448;BME280;15675;52.870;-1.416;2023-02-11T08:45:08;102964.56;;;9.44;100.00
28448;BME280;15675;52.870;-1.416;2023-02-11T08:47:35;102963.22;;;9.52;100.00
28448;BME280;15675;52.870;-1.416;2023-02-11T08:50:01;102960.13;;;9.61;100.00
28448;BME280;15675;52.870;-1.416;2023-02-11T08:52:26;102956.69;;;9.62;100.00
28448;BME280;15675;52.870;-1.416;2023-02-11T08:54:52;102959.09;;;9.98;100.00
28448;BME280;15675;52.870;-1.416;2023-02-11T08:57:18;102965.09;;;9.97;100.00
28448;BME280;15675;52.870;-1.416;2023-02-11T08:59:43;102970.34;;;10.19;100.00
28448;BME280;15675;52.870;-1.416;2023-02-11T09:02:13;102978.97;;;10.40;100.00
28448;BME280;15675;52.870;-1.416;2023-02-11T09:04:39;102980.41;;;10.33;100.00
28448;BME280;15675;52.870;-1.416;2023-02-11T09:07:05;102983.91;;;10.55;100.00
28448;BME280;15675;52.870;-1.416;2023-02-11T09:09:30;102982.75;;;10.27;100.00
28448;BME280;15675;52.870;-1.416;2023-02-11T09:11:56;102985.91;;;10.39;100.00
28448;BME280;15675;52.870;-1.416;2023-02-11T09:14:23;102982.09;;;9.90;100.00
28448;BME280;15675;52.870;-1.416;2023-02-11T09:16:49;102973.47;;;10.11;100.00
28448;BME280;15675;52.870;-1.416;2023-02-11T09:19:16;102969.34;;;9.95;100.00
28448;BME280;15675;52.870;-1.416;2023-02-11T09:21:42;102986.59;;;9.94;100.00
28448;BME280;15675;52.870;-1.416;2023-02-11T09:24:08;102986.41;;;9.90;100.00
28448;BME280;15675;52.870;-1.416;2023-02-11T09:26:35;102985.00;;;9.77;100.00
28448;BME280;15675;52.870;-1.416;2023-02-11T09:29:02;102996.06;;;9.73;100.00
28448;BME280;15675;52.870;-1.416;2023-02-11T09:31:29;102991.09;;;9.98;100.00
28448;BME280;15675;52.870;-1.416;2023-02-11T09:34:01;102995.75;;;9.86;100.00
28448;BME280;15675;52.870;-1.416;2023-02-11T09:36:33;103004.69;;;9.93;100.00
28448;BME280;15675;52.870;-1.416;2023-02-11T09:39:00;102996.88;;;10.12;100.00
28448;BME280;15675;52.870;-1.416;2023-02-11T09:41:36;103000.69;;;9.80;100.00
28448;BME280;15675;52.870;-1.416;2023-02-11T09:44:08;102999.28;;;9.67;100.00
28448;BME280;15675;52.870;-1.416;2023-02-11T09:46:39;102988.47;;;10.18;100.00
28448;BME280;15675;52.870;-1.416;2023-02-11T09:49:06;102989.88;;;10.52;100.00
28448;BME280;15675;52.870;-1.416;2023-02-11T09:51:46;102987.53;;;10.81;100.00
28448;BME280;15675;52.870;-1.416;2023-02-11T09:54:25;102993.31;;;10.31;100.00
28448;BME280;15675;52.870;-1.416;2023-02-11T09:56:53;102993.41;;;10.54;100.00
28448;BME280;15675;52.870;-1.416;2023-02-11T09:59:18;102984.41;;;10.46;100.00
28448;BME280;15675;52.870;-1.416;2023-02-11T10:02:01;102987.59;;;10.39;100.00
28448;BME280;15675;52.870;-1.416;2023-02-11T10:07:32;102993.06;;;10.67;100.00
28448;BME280;15675;52.870;-1.416;2023-02-11T10:23:32;102988.31;;;10.57;100.00
28448;BME280;15675;52.870;-1.416;2023-02-11T10:25:59;102993.78;;;10.21;100.00
28448;BME280;15675;52.870;-1.416;2023-02-11T10:28:31;102999.22;;;10.06;100.00
28448;BME280;15675;52.870;-1.416;2023-02-11T10:31:10;102994.59;;;10.20;100.00
28448;BME280;15675;52.870;-1.416;2023-02-11T10:34:04;102998.56;;;9.91;100.00
28448;BME280;15675;52.870;-1.416;2023-02-11T10:36:33;103004.28;;;10.24;100.00
28448;BME280;15675;52.870;-1.416;2023-02-11T10:41:40;103010.91;;;9.96;100.00
28448;BME280;15675;52.870;-1.416;2023-02-11T10:44:15;103002.50;;;10.23;100.00
28448;BME280;15675;52.870;-1.416;2023-02-11T10:46:44;102987.16;;;10.49;100.00
28448;BME280;15675;52.870;-1.416;2023-02-11T10:55:01;102998.72;;;10.15;100.00
28448;BME280;15675;52.870;-1.416;2023-02-11T10:57:37;102994.69;;;10.23;100.00
28448;BME280;15675;52.870;-1.416;2023-02-11T11:02:44;102995.78;;;10.70;100.00
28448;BME280;15675;52.870;-1.416;2023-02-11T11:05:19;102997.97;;;10.82;98.28
28448;BME280;15675;52.870;-1.416;2023-02-11T11:07:59;103004.44;;;10.71;97.61
28448;BME280;15675;52.870;-1.416;2023-02-11T11:13:02;103001.09;;;10.31;98.82
28448;BME280;15675;52.870;-1.416;2023-02-11T11:15:30;102991.38;;;10.47;98.65
28448;BME280;15675;52.870;-1.416;2023-02-11T11:18:15;103006.97;;;10.47;99.60
28448;BME280;15675;52.870;-1.416;2023-02-11T11:20:59;102999.03;;;10.65;99.37
28448;BME280;15675;52.870;-1.416;2023-02-11T11:23:27;102992.72;;;10.81;98.06
28448;BME280;15675;52.870;-1.416;2023-02-11T11:26:11;103003.38;;;10.66;97.68
28448;BME280;15675;52.870;-1.416;2023-02-11T11:28:41;102995.59;;;10.66;98.55
28448;BME280;15675;52.870;-1.416;2023-02-11T11:31:13;102983.50;;;10.66;99.07
28448;BME280;15675;52.870;-1.416;2023-02-11T11:33:41;102993.41;;;10.54;100.00
28448;BME280;15675;52.870;-1.416;2023-02-11T11:36:11;102969.44;;;10.61;100.00
28448;BME280;15675;52.870;-1.416;2023-02-11T11:38:44;102982.88;;;10.51;100.00
28448;BME280;15675;52.870;-1.416;2023-02-11T11:44:27;102979.94;;;10.64;100.00
28448;BME280;15675;52.870;-1.416;2023-02-11T11:50:14;102976.00;;;10.30;100.00
28448;BME280;15675;52.870;-1.416;2023-02-11T11:52:55;102982.22;;;10.34;100.00
28448;BME280;15675;52.870;-1.416;2023-02-11T11:55:29;102968.06;;;10.48;100.00
28448;BME280;15675;52.870;-1.416;2023-02-11T11:57:56;102965.97;;;10.61;100.00
28448;BME280;15675;52.870;-1.416;2023-02-11T12:00:36;102960.75;;;10.38;100.00
28448;BME280;15675;52.870;-1.416;2023-02-11T12:11:27;102966.06;;;10.41;100.00
28448;BME280;15675;52.870;-1.416;2023-02-11T12:14:12;102969.75;;;10.69;100.00
28448;BME280;15675;52.870;-1.416;2023-02-11T12:17:03;102965.31;;;10.66;100.00
28448;BME280;15675;52.870;-1.416;2023-02-11T12:28:04;102968.50;;;10.59;98.88
28448;BME280;15675;52.870;-1.416;2023-02-11T12:31:07;102970.31;;;10.39;100.00
28448;BME280;15675;52.870;-1.416;2023-02-11T12:46:27;102986.41;;;10.53;96.74
28448;BME280;15675;52.870;-1.416;2023-02-11T12:59:43;102980.06;;;10.45;95.44
28448;BME280;15675;52.870;-1.416;2023-02-11T13:04:57;102983.84;;;10.32;95.76
28448;BME280;15675;52.870;-1.416;2023-02-11T13:07:30;102986.16;;;10.68;95.41
28448;BME280;15675;52.870;-1.416;2023-02-11T13:10:03;102990.41;;;10.88;95.14
28448;BME280;15675;52.870;-1.416;2023-02-11T13:12:32;102990.38;;;11.11;94.43
28448;BME280;15675;52.870;-1.416;2023-02-11T13:15:17;103002.13;;;10.79;93.86
28448;BME280;15675;52.870;-1.416;2023-02-11T13:17:50;102997.25;;;10.64;94.40
28448;BME280;15675;52.870;-1.416;2023-02-11T13:23:20;102996.88;;;11.00;94.85
28448;BME280;15675;52.870;-1.416;2023-02-11T13:25:57;102997.41;;;11.14;94.99
28448;BME280;15675;52.870;-1.416;2023-02-11T13:31:11;102997.84;;;10.57;96.88
28448;BME280;15675;52.870;-1.416;2023-02-11T13:33:39;102986.03;;;10.65;96.84
28448;BME280;15675;52.870;-1.416;2023-02-11T13:38:33;102986.25;;;10.48;97.05
28448;BME280;15675;52.870;-1.416;2023-02-11T13:44:18;102998.19;;;10.88;96.77
28448;BME280;15675;52.870;-1.416;2023-02-11T13:49:41;102991.19;;;10.63;99.15
28448;BME280;15675;52.870;-1.416;2023-02-11T13:52:24;102998.50;;;10.74;98.33
28448;BME280;15675;52.870;-1.416;2023-02-11T13:54:53;102999.63;;;10.58;97.25
28448;BME280;15675;52.870;-1.416;2023-02-11T13:57:21;102987.50;;;10.58;97.79
28448;BME280;15675;52.870;-1.416;2023-02-11T14:02:37;102984.66;;;10.52;97.15
28448;BME280;15675;52.870;-1.416;2023-02-11T14:05:31;102981.66;;;10.64;98.44
28448;BME280;15675;52.870;-1.416;2023-02-11T14:08:18;102979.47;;;10.52;96.85
28448;BME280;15675;52.870;-1.416;2023-02-11T14:19:44;102977.75;;;10.52;97.33
28448;BME280;15675;52.870;-1.416;2023-02-11T14:22:16;102983.03;;;10.77;97.14
28448;BME280;15675;52.870;-1.416;2023-02-11T14:24:49;102962.94;;;10.73;97.65
28448;BME280;15675;52.870;-1.416;2023-02-11T14:38:55;102973.22;;;10.92;96.34
28448;BME280;15675;52.870;-1.416;2023-02-11T14:41:28;102979.44;;;10.73;96.07
28448;BME280;15675;52.870;-1.416;2023-02-11T14:43:58;102973.28;;;10.94;95.96
28448;BME280;15675;52.870;-1.416;2023-02-11T14:46:27;102984.22;;;10.85;95.28
28448;BME280;15675;52.870;-1.416;2023-02-11T14:48:57;102989.31;;;11.29;94.49
28448;BME280;15675;52.870;-1.416;2023-02-11T14:51:27;102983.56;;;11.13;93.48
28448;BME280;15675;52.870;-1.416;2023-02-11T14:53:58;102982.84;;;10.95;94.06
28448;BME280;15675;52.870;-1.416;2023-02-11T14:56:30;102976.72;;;11.17;93.95
28448;BME280;15675;52.870;-1.416;2023-02-11T14:58:57;102976.03;;;10.98;94.08
28448;BME280;15675;52.870;-1.416;2023-02-11T15:03:57;102981.13;;;10.73;95.43
28448;BME280;15675;52.870;-1.416;2023-02-11T15:06:41;102980.66;;;10.83;96.39
28448;BME280;15675;52.870;-1.416;2023-02-11T15:09:36;102986.28;;;10.94;95.88
28448;BME280;15675;52.870;-1.416;2023-02-11T15:12:04;102989.34;;;11.06;94.90
28448;BME280;15675;52.870;-1.416;2023-02-11T15:14:39;102985.72;;;11.02;95.10
28448;BME280;15675;52.870;-1.416;2023-02-11T15:17:07;102992.28;;;11.15;93.78
28448;BME280;15675;52.870;-1.416;2023-02-11T15:19:38;102994.88;;;10.93;94.29
28448;BME280;15675;52.870;-1.416;2023-02-11T15:22:17;103002.75;;;10.94;95.51
28448;BME280;15675;52.870;-1.416;2023-02-11T15:24:44;102994.50;;;11.04;95.66